createdAt,value
2019-01-14T00:00:11.896Z,0.40
2019-01-14T00:02:40.715Z,0.40
2019-01-14T00:05:09.252Z,0.40
2019-01-14T00:07:37.619Z,0.50
2019-01-14T00:10:07.227Z,0.40
2019-01-14T00:12:35.992Z,0.40
2019-01-14T00:15:07.754Z,0.60
2019-01-14T00:17:36.207Z,0.80
2019-01-14T00:20:08.161Z,0.50
2019-01-14T00:22:36.619Z,0.50
2019-01-14T00:25:06.203Z,0.50
2019-01-14T00:27:34.960Z,0.60
2019-01-14T00:30:06.130Z,0.40
2019-01-14T00:32:34.464Z,0.53
2019-01-14T00:35:02.982Z,0.40
2019-01-14T00:37:31.397Z,0.50
2019-01-14T00:39:59.815Z,0.40
2019-01-14T00:42:28.940Z,0.43
2019-01-14T00:44:57.463Z,0.53
2019-01-14T00:47:25.913Z,0.53
2019-01-14T00:49:54.261Z,0.40
2019-01-14T00:52:22.573Z,0.33
2019-01-14T00:54:50.996Z,0.30
2019-01-14T00:57:22.960Z,0.30
2019-01-14T00:59:51.395Z,0.30
2019-01-14T01:02:20.131Z,0.23
2019-01-14T01:04:48.759Z,0.27
2019-01-14T01:07:17.161Z,0.20
2019-01-14T01:09:45.651Z,0.30
2019-01-14T01:12:14.472Z,0.23
2019-01-14T01:14:42.785Z,0.20
2019-01-14T01:17:11.376Z,0.20
2019-01-14T01:19:40.034Z,0.13
2019-01-14T01:22:08.449Z,0.20
2019-01-14T01:24:36.826Z,0.23
2019-01-14T01:27:05.386Z,0.43
2019-01-14T01:29:35.994Z,0.50
2019-01-14T01:32:10.740Z,0.30
2019-01-14T01:34:39.114Z,0.40
2019-01-14T01:37:07.707Z,0.40
2019-01-14T01:39:36.020Z,0.23
2019-01-14T01:42:04.866Z,0.20
2019-01-14T01:44:33.253Z,0.13
2019-01-14T01:47:01.628Z,0.37
2019-01-14T01:49:30.014Z,0.30
2019-01-14T01:51:58.591Z,0.33
2019-01-14T01:54:27.037Z,0.30
2019-01-14T01:56:55.490Z,0.20
2019-01-14T01:59:23.975Z,0.50
2019-01-14T02:01:56.519Z,0.03
2019-01-14T02:04:25.179Z,0.10
2019-01-14T02:06:53.575Z,0.30
2019-01-14T02:09:22.289Z,0.10
2019-01-14T02:11:51.050Z,0.10
2019-01-14T02:14:19.757Z,0.20
2019-01-14T02:16:49.110Z,0.10
2019-01-14T02:19:17.579Z,0.10
2019-01-14T02:21:45.959Z,0.10
2019-01-14T02:24:14.733Z,0.20
2019-01-14T02:26:43.044Z,0.20
2019-01-14T02:29:11.408Z,0.10
2019-01-14T02:31:46.313Z,0.20
2019-01-14T02:34:14.718Z,0.13
2019-01-14T02:36:48.339Z,0.10
2019-01-14T02:39:13.279Z,0.20
2019-01-14T02:41:42.182Z,0.00
2019-01-14T02:44:10.486Z,0.07
2019-01-14T02:46:39.202Z,0.10
2019-01-14T02:49:07.639Z,0.10
2019-01-14T02:51:36.232Z,0.23
2019-01-14T02:54:04.788Z,0.10
2019-01-14T02:56:33.178Z,0.10
2019-01-14T02:59:01.748Z,0.10
2019-01-14T03:01:30.221Z,0.20
2019-01-14T03:03:58.530Z,0.00
2019-01-14T03:06:26.946Z,0.00
2019-01-14T03:08:55.373Z,0.10
2019-01-14T03:11:23.772Z,0.00
2019-01-14T03:13:52.318Z,0.10
2019-01-14T03:16:20.773Z,0.00
2019-01-14T03:18:52.533Z,0.10
2019-01-14T03:21:20.908Z,0.00
2019-01-14T03:23:49.416Z,0.07
2019-01-14T03:26:17.789Z,0.20
2019-01-14T03:28:46.273Z,0.30
2019-01-14T03:31:14.874Z,0.20
2019-01-14T03:33:43.351Z,0.23
2019-01-14T03:36:11.727Z,0.20
2019-01-14T03:38:40.150Z,0.47
2019-01-14T03:41:08.883Z,0.20
2019-01-14T03:43:37.289Z,0.20
2019-01-14T03:46:05.870Z,0.10
2019-01-14T03:48:34.709Z,0.20
2019-01-14T03:51:03.087Z,0.20
2019-01-14T03:53:31.754Z,0.10
2019-01-14T03:56:00.172Z,0.20
2019-01-14T03:58:28.538Z,0.10
2019-01-14T04:01:00.381Z,0.10
2019-01-14T04:03:28.901Z,0.10
2019-01-14T04:05:57.260Z,0.50
2019-01-14T04:08:25.640Z,0.10
2019-01-14T04:10:54.140Z,0.10
2019-01-14T04:13:26.381Z,0.10
2019-01-14T04:15:55.989Z,0.20
2019-01-14T04:18:24.321Z,0.10
2019-01-14T04:20:52.742Z,0.10
2019-01-14T04:23:21.250Z,0.10
2019-01-14T04:25:49.574Z,0.10
2019-01-14T04:28:18.123Z,0.10
2019-01-14T04:30:53.454Z,0.20
2019-01-14T04:33:21.871Z,0.37
2019-01-14T04:35:50.656Z,0.30
2019-01-14T04:38:19.100Z,0.30
2019-01-14T04:40:47.654Z,0.30
2019-01-14T04:43:16.375Z,0.20
2019-01-14T04:45:44.734Z,0.40
2019-01-14T04:48:13.148Z,0.60
2019-01-14T04:50:41.690Z,0.60
2019-01-14T04:53:10.077Z,0.37
2019-01-14T04:55:38.605Z,0.53
2019-01-14T04:58:07.425Z,0.70
2019-01-14T05:00:35.909Z,0.50
2019-01-14T05:03:04.281Z,0.70
2019-01-14T05:05:32.838Z,0.60
2019-01-14T05:08:01.191Z,0.60
2019-01-14T05:10:29.582Z,0.63
2019-01-14T05:12:58.207Z,0.60
2019-01-14T05:15:26.586Z,0.60
2019-01-14T05:17:55.080Z,0.60
2019-01-14T05:20:25.517Z,0.70
2019-01-14T05:22:54.718Z,0.70
2019-01-14T05:25:23.281Z,0.60
2019-01-14T05:27:52.049Z,0.50
2019-01-14T05:30:20.913Z,0.30
2019-01-14T05:32:53.391Z,0.40
2019-01-14T05:35:21.714Z,0.40
2019-01-14T05:37:50.643Z,0.60
2019-01-14T05:40:24.100Z,0.23
2019-01-14T05:42:52.805Z,0.50
2019-01-14T05:45:21.130Z,0.50
2019-01-14T05:47:49.762Z,0.40
2019-01-14T05:50:18.151Z,0.73
2019-01-14T05:52:46.832Z,0.43
2019-01-14T05:55:16.986Z,0.50
2019-01-14T05:57:45.332Z,0.73
2019-01-14T06:00:19.732Z,0.60
2019-01-14T06:02:48.101Z,0.53
2019-01-14T06:05:17.522Z,0.73
2019-01-14T06:07:45.876Z,0.70
2019-01-14T06:10:14.395Z,0.70
2019-01-14T06:12:42.828Z,0.60
2019-01-14T06:15:13.684Z,0.90
2019-01-14T06:17:41.963Z,0.70
2019-01-14T06:20:16.199Z,0.70
2019-01-14T06:22:44.723Z,0.90
2019-01-14T06:25:14.745Z,0.60
2019-01-14T06:27:43.136Z,0.80
2019-01-14T06:30:19.707Z,0.73
2019-01-14T06:32:48.307Z,0.60
2019-01-14T06:35:16.987Z,0.80
2019-01-14T06:37:52.277Z,0.88
2019-01-14T06:40:19.196Z,0.80
2019-01-14T06:42:51.771Z,0.70
2019-01-14T06:45:20.418Z,0.70
2019-01-14T06:47:48.840Z,0.60
2019-01-14T06:50:19.039Z,0.77
2019-01-14T06:52:47.484Z,0.53
2019-01-14T06:55:16.948Z,0.53
2019-01-14T06:57:45.329Z,0.50
2019-01-14T07:00:17.061Z,0.60
2019-01-14T07:02:48.929Z,0.43
2019-01-14T07:05:17.805Z,0.60
2019-01-14T07:07:46.345Z,0.70
2019-01-14T07:10:20.182Z,0.40
2019-01-14T07:12:48.942Z,0.60
2019-01-14T07:15:17.279Z,0.60
2019-01-14T07:17:45.660Z,0.60
2019-01-14T07:20:14.993Z,0.70
2019-01-14T07:22:43.581Z,0.77
2019-01-14T07:25:11.997Z,0.60
2019-01-14T07:27:40.664Z,0.83
2019-01-14T07:30:12.287Z,0.70
2019-01-14T07:32:40.970Z,0.63
2019-01-14T07:35:10.976Z,0.80
2019-01-14T07:37:39.339Z,0.60
2019-01-14T07:40:10.695Z,0.83
2019-01-14T07:42:39.272Z,1.03
2019-01-14T07:45:10.217Z,1.13
2019-01-14T07:47:38.848Z,1.00
2019-01-14T07:50:10.088Z,1.27
2019-01-14T07:52:38.690Z,2.00
2019-01-14T07:55:07.272Z,2.07
2019-01-14T07:57:35.622Z,1.53
2019-01-14T08:00:13.192Z,1.37
2019-01-14T08:02:41.832Z,0.83
2019-01-14T08:05:10.171Z,1.00
2019-01-14T08:07:38.510Z,1.33
2019-01-14T08:10:07.952Z,1.10
2019-01-14T08:12:36.640Z,1.00
2019-01-14T08:15:08.247Z,1.00
2019-01-14T08:17:36.779Z,0.63
2019-01-14T08:20:07.827Z,1.10
2019-01-14T08:22:36.120Z,0.80
2019-01-14T08:25:06.032Z,0.67
2019-01-14T08:27:34.697Z,0.90
2019-01-14T08:30:04.117Z,0.80
2019-01-14T08:32:32.397Z,1.00
2019-01-14T08:35:00.976Z,0.63
2019-01-14T08:37:29.281Z,0.77
2019-01-14T08:39:58.295Z,0.70
2019-01-14T08:42:30.378Z,0.80
2019-01-14T08:44:58.728Z,0.80
2019-01-14T08:47:27.940Z,0.40
2019-01-14T08:49:57.021Z,0.70
2019-01-14T08:52:25.293Z,0.50
2019-01-14T08:54:53.611Z,0.60
2019-01-14T08:57:21.901Z,0.63
2019-01-14T08:59:50.575Z,0.80
2019-01-14T09:02:18.932Z,0.70
2019-01-14T09:04:47.225Z,0.80
2019-01-14T09:07:15.619Z,0.87
2019-01-14T09:09:43.899Z,0.60
2019-01-14T09:12:12.202Z,0.60
2019-01-14T09:14:40.582Z,0.50
2019-01-14T09:17:09.120Z,0.60
2019-01-14T09:19:37.467Z,0.70
2019-01-14T09:22:05.852Z,0.50
2019-01-14T09:24:34.443Z,0.70
2019-01-14T09:27:02.846Z,0.60
2019-01-14T09:29:31.147Z,0.60
2019-01-14T09:31:59.803Z,0.60
2019-01-14T09:34:28.612Z,0.60
2019-01-14T09:36:59.145Z,1.17
2019-01-14T09:39:29.745Z,0.73
2019-01-14T09:41:58.118Z,0.73
2019-01-14T09:44:33.203Z,0.83
2019-01-14T09:47:01.622Z,0.77
2019-01-14T09:49:29.984Z,0.80
2019-01-14T09:52:00.259Z,0.80
2019-01-14T09:54:28.631Z,0.87
2019-01-14T09:56:56.961Z,0.80
2019-01-14T09:59:25.509Z,0.93
2019-01-14T10:01:53.796Z,0.80
2019-01-14T10:04:22.174Z,1.20
2019-01-14T10:06:50.916Z,1.10
2019-01-14T10:09:19.361Z,1.00
2019-01-14T10:11:47.790Z,1.17
2019-01-14T10:14:16.145Z,1.33
2019-01-14T10:16:45.360Z,1.33
2019-01-14T10:19:13.865Z,1.30
2019-01-14T10:21:42.259Z,1.33
2019-01-14T10:24:10.558Z,1.50
2019-01-14T10:26:39.140Z,1.60
2019-01-14T10:29:07.613Z,1.60
2019-01-14T10:31:35.986Z,1.40
2019-01-14T10:34:04.918Z,1.47
2019-01-14T10:36:35.250Z,1.50
2019-01-14T10:39:05.860Z,1.60
2019-01-14T10:41:34.308Z,1.43
2019-01-14T10:44:02.845Z,1.40
2019-01-14T10:46:31.434Z,1.70
2019-01-14T10:49:00.091Z,1.73
2019-01-14T10:51:28.367Z,1.70
2019-01-14T10:53:56.688Z,1.90
2019-01-14T10:56:25.003Z,1.87
2019-01-14T10:58:53.509Z,1.60
2019-01-14T11:01:21.973Z,1.73
2019-01-14T11:03:50.417Z,2.20
2019-01-14T11:06:18.835Z,2.27
2019-01-14T11:08:48.059Z,3.13
2019-01-14T11:11:16.380Z,1.10
2019-01-14T11:13:44.801Z,1.10
2019-01-14T11:16:13.129Z,1.40
2019-01-14T11:18:46.931Z,1.20
2019-01-14T11:21:15.317Z,1.07
2019-01-14T11:23:43.900Z,1.40
2019-01-14T11:26:13.255Z,0.90
2019-01-14T11:28:41.826Z,1.10
2019-01-14T11:31:10.229Z,2.00
2019-01-14T11:33:40.261Z,1.67
2019-01-14T11:36:08.706Z,0.97
2019-01-14T11:38:43.175Z,1.33
2019-01-14T11:41:12.379Z,1.10
2019-01-14T11:43:44.488Z,0.97
2019-01-14T11:46:12.993Z,1.03
2019-01-14T11:48:41.568Z,1.23
2019-01-14T11:51:09.937Z,0.90
2019-01-14T11:53:38.380Z,0.93
2019-01-14T11:56:06.912Z,1.10
2019-01-14T11:58:35.430Z,1.13
2019-01-14T12:01:03.931Z,1.30
2019-01-14T12:03:32.690Z,1.30
2019-01-14T12:06:01.154Z,1.47
2019-01-14T12:08:29.546Z,1.40
2019-01-14T12:10:58.030Z,1.50
2019-01-14T12:13:30.634Z,1.20
2019-01-14T12:15:59.066Z,1.57
2019-01-14T12:18:27.374Z,1.93
2019-01-14T12:20:55.858Z,1.50
2019-01-14T12:23:24.911Z,1.73
2019-01-14T12:25:53.362Z,1.27
2019-01-14T12:28:21.742Z,1.33
2019-01-14T12:30:50.208Z,1.30
2019-01-14T12:33:18.742Z,1.30
2019-01-14T12:35:48.054Z,1.13
2019-01-14T12:38:17.065Z,1.50
2019-01-14T12:40:45.501Z,1.10
2019-01-14T12:43:14.000Z,1.33
2019-01-14T12:45:42.443Z,1.20
2019-01-14T12:48:11.198Z,1.00
2019-01-14T12:50:39.817Z,1.00
2019-01-14T12:53:08.157Z,1.07
2019-01-14T12:55:36.493Z,0.90
2019-01-14T12:58:05.203Z,1.43
2019-01-14T13:00:35.218Z,1.10
2019-01-14T13:03:03.505Z,1.60
2019-01-14T13:05:31.963Z,1.20
2019-01-14T13:08:00.901Z,1.17
2019-01-14T13:10:29.603Z,1.37
2019-01-14T13:12:57.961Z,1.40
2019-01-14T13:15:27.242Z,1.00
2019-01-14T13:17:55.750Z,1.40
2019-01-14T13:20:24.297Z,0.93
2019-01-14T13:22:53.090Z,0.90
2019-01-14T13:25:21.490Z,0.83
2019-01-14T13:27:49.895Z,1.20
2019-01-14T13:30:27.223Z,1.20
2019-01-14T13:32:57.720Z,0.80
2019-01-14T13:35:30.791Z,1.30
2019-01-14T13:37:59.437Z,1.97
2019-01-14T13:40:28.015Z,1.13
2019-01-14T13:42:56.416Z,1.20
2019-01-14T13:45:25.390Z,1.10
2019-01-14T13:47:53.919Z,1.17
2019-01-14T13:50:24.366Z,2.10
2019-01-14T13:52:52.820Z,1.30
2019-01-14T13:55:21.336Z,1.20
2019-01-14T13:57:50.057Z,1.37
2019-01-14T14:00:21.060Z,1.30
2019-01-14T14:02:49.943Z,1.50
2019-01-14T14:05:18.938Z,1.20
2019-01-14T14:07:47.817Z,1.07
2019-01-14T14:10:24.215Z,1.43
2019-01-14T14:12:52.881Z,1.20
2019-01-14T14:15:21.636Z,1.03
2019-01-14T14:17:50.607Z,1.50
2019-01-14T14:20:19.730Z,1.07
2019-01-14T14:22:48.522Z,1.00
2019-01-14T14:25:17.207Z,1.10
2019-01-14T14:27:45.915Z,1.20
2019-01-14T14:30:22.767Z,1.23
2019-01-14T14:32:51.649Z,1.00
2019-01-14T14:35:20.435Z,1.10
2019-01-14T14:37:50.233Z,1.80
2019-01-14T14:40:18.864Z,1.70
2019-01-14T14:42:47.675Z,1.20
2019-01-14T14:45:19.946Z,1.17
2019-01-14T14:47:50.062Z,1.90
2019-01-14T14:50:20.144Z,1.10
2019-01-14T14:52:50.171Z,1.60
2019-01-14T14:55:19.069Z,1.37
2019-01-14T14:57:48.139Z,1.70
2019-01-14T15:00:19.346Z,1.40
2019-01-14T15:02:48.325Z,1.67
2019-01-14T15:05:16.911Z,1.37
2019-01-14T15:07:45.480Z,1.30
2019-01-14T15:10:19.220Z,1.30
2019-01-14T15:12:47.906Z,1.60
2019-01-14T15:15:18.207Z,1.00
2019-01-14T15:17:47.117Z,1.30
2019-01-14T15:20:17.722Z,1.17
2019-01-14T15:22:46.504Z,1.17
2019-01-14T15:25:15.294Z,1.00
2019-01-14T15:27:43.884Z,1.23
2019-01-14T15:30:21.674Z,1.30
2019-01-14T15:32:50.730Z,1.57
2019-01-14T15:35:19.224Z,1.10
2019-01-14T15:37:47.859Z,1.50
2019-01-14T15:40:18.132Z,1.30
2019-01-14T15:42:47.014Z,1.23
2019-01-14T15:45:17.754Z,1.00
2019-01-14T15:47:46.471Z,0.90
2019-01-14T15:50:15.080Z,0.90
2019-01-14T15:52:43.672Z,1.00
2019-01-14T15:55:20.975Z,1.20
2019-01-14T15:57:49.534Z,1.50
2019-01-14T16:00:19.168Z,1.73
2019-01-14T16:02:47.475Z,1.17
2019-01-14T16:05:17.671Z,1.30
2019-01-14T16:07:46.538Z,1.33
2019-01-14T16:10:41.134Z,1.60
2019-01-14T16:13:10.123Z,1.57
2019-01-14T16:15:39.186Z,2.47
2019-01-14T16:18:10.313Z,2.00
2019-01-14T16:20:39.051Z,2.37
2019-01-14T16:23:07.846Z,2.33
2019-01-14T16:25:36.733Z,2.13
2019-01-14T16:28:06.501Z,1.30
2019-01-14T16:30:38.960Z,1.67
2019-01-14T16:33:07.421Z,1.40
2019-01-14T16:35:36.090Z,2.22
2019-01-14T16:38:04.635Z,1.77
2019-01-14T16:40:35.024Z,1.63
2019-01-14T16:43:08.671Z,2.33
2019-01-14T16:45:37.365Z,2.20
2019-01-14T16:48:09.979Z,1.60
2019-01-14T16:50:38.884Z,1.30
2019-01-14T16:53:07.595Z,1.57
2019-01-14T16:55:37.743Z,1.00
2019-01-14T16:58:06.483Z,1.80
2019-01-14T17:00:34.857Z,1.73
2019-01-14T17:03:06.326Z,1.90
2019-01-14T17:05:35.644Z,1.10
2019-01-14T17:08:04.708Z,1.20
2019-01-14T17:10:33.143Z,1.30
2019-01-14T17:13:01.597Z,1.43
2019-01-14T17:15:30.479Z,1.73
2019-01-14T17:17:58.906Z,1.97
2019-01-14T17:20:27.608Z,0.80
2019-01-14T17:22:57.929Z,1.00
2019-01-14T17:25:27.028Z,1.10
2019-01-14T17:27:55.675Z,0.73
2019-01-14T17:30:24.022Z,0.80
2019-01-14T17:32:53.571Z,1.20
2019-01-14T17:35:22.508Z,0.93
2019-01-14T17:37:50.979Z,0.70
2019-01-14T17:40:21.128Z,1.40
2019-01-14T17:42:49.679Z,2.40
2019-01-14T17:45:18.193Z,1.83
2019-01-14T17:47:46.679Z,1.93
2019-01-14T17:50:17.553Z,3.13
2019-01-14T17:52:46.470Z,1.70
2019-01-14T17:55:15.345Z,2.90
2019-01-14T17:57:43.883Z,2.43
2019-01-14T18:00:17.874Z,4.13
2019-01-14T18:02:46.488Z,3.50
2019-01-14T18:05:15.428Z,5.47
2019-01-14T18:07:44.040Z,2.47
2019-01-14T18:10:19.680Z,3.70
2019-01-14T18:12:48.459Z,1.40
2019-01-14T18:15:17.266Z,2.10
2019-01-14T18:17:48.031Z,1.43
2019-01-14T18:20:19.270Z,18.20
2019-01-14T18:22:50.237Z,2.00
2019-01-14T18:25:19.006Z,1.70
2019-01-14T18:27:48.010Z,8.50
2019-01-14T18:30:18.994Z,14.10
2019-01-14T18:32:47.715Z,8.87
2019-01-14T18:35:17.200Z,7.10
2019-01-14T18:37:48.973Z,3.90
2019-01-14T18:40:18.910Z,4.20
2019-01-14T18:42:51.080Z,18.87
2019-01-14T18:45:21.343Z,12.67
2019-01-14T18:47:50.146Z,5.43
2019-01-14T18:50:20.549Z,4.93
2019-01-14T18:52:50.340Z,8.37
2019-01-14T18:55:19.219Z,9.07
2019-01-14T18:57:48.202Z,4.00
2019-01-14T19:00:21.356Z,9.30
2019-01-14T19:02:51.587Z,2.73
2019-01-14T19:05:20.475Z,2.37
2019-01-14T19:07:49.520Z,14.93
2019-01-14T19:10:17.978Z,3.07
2019-01-14T19:12:46.912Z,7.10
2019-01-14T19:15:18.050Z,4.97
2019-01-14T19:17:46.902Z,14.90
2019-01-14T19:20:17.894Z,8.27
2019-01-14T19:22:49.600Z,14.37
2019-01-14T19:25:21.533Z,10.60
2019-01-14T19:27:50.092Z,3.40
2019-01-14T19:30:20.820Z,2.90
2019-01-14T19:32:49.456Z,3.70
2019-01-14T19:35:19.039Z,3.43
2019-01-14T19:37:49.242Z,2.20
2019-01-14T19:40:19.351Z,1.97
2019-01-14T19:42:50.318Z,1.43
2019-01-14T19:45:19.877Z,1.80
2019-01-14T19:47:48.590Z,1.10
2019-01-14T19:50:21.962Z,1.20
2019-01-14T19:52:50.849Z,1.00
2019-01-14T19:55:19.838Z,1.13
2019-01-14T19:57:49.190Z,0.97
2019-01-14T20:00:21.068Z,1.40
2019-01-14T20:02:49.736Z,1.13
2019-01-14T20:05:18.347Z,0.90
2019-01-14T20:07:47.182Z,1.23
2019-01-14T20:10:16.209Z,1.00
2019-01-14T20:12:46.450Z,1.43
2019-01-14T20:15:17.553Z,1.30
2019-01-14T20:17:45.979Z,1.50
2019-01-14T20:20:14.893Z,1.40
2019-01-14T20:22:43.347Z,1.33
2019-01-14T20:25:12.632Z,2.23
2019-01-14T20:27:41.342Z,1.20
2019-01-14T20:30:15.681Z,1.13
2019-01-14T20:32:44.214Z,1.00
2019-01-14T20:35:16.143Z,1.07
2019-01-14T20:37:44.704Z,1.17
2019-01-14T20:40:16.736Z,1.30
2019-01-14T20:42:52.282Z,1.40
2019-01-14T20:45:24.406Z,2.60
2019-01-14T20:47:57.512Z,2.33
2019-01-14T20:50:26.045Z,2.00
2019-01-14T20:52:55.131Z,2.57
2019-01-14T20:55:23.722Z,2.00
2019-01-14T20:57:52.520Z,2.17
2019-01-14T21:00:23.353Z,1.60
2019-01-14T21:02:51.926Z,2.80
2019-01-14T21:05:20.880Z,2.97
2019-01-14T21:07:49.552Z,2.30
2019-01-14T21:10:18.453Z,2.53
2019-01-14T21:12:47.335Z,1.97
2019-01-14T21:15:16.187Z,1.83
2019-01-14T21:17:44.791Z,2.93
2019-01-14T21:20:18.619Z,2.03
2019-01-14T21:22:47.574Z,1.50
2019-01-14T21:25:16.069Z,1.17
2019-01-14T21:27:44.547Z,1.20
2019-01-14T21:30:19.026Z,1.43
2019-01-14T21:32:47.641Z,1.00
2019-01-14T21:35:16.196Z,0.80
2019-01-14T21:37:45.222Z,0.90
2019-01-14T21:40:14.472Z,0.90
2019-01-14T21:42:43.370Z,1.30
2019-01-14T21:45:15.521Z,1.30
2019-01-14T21:47:43.873Z,1.00
2019-01-14T21:50:15.169Z,1.07
2019-01-14T21:52:43.610Z,1.10
2019-01-14T21:55:14.545Z,1.00
2019-01-14T21:57:43.262Z,0.90
2019-01-14T22:00:14.163Z,1.00
2019-01-14T22:02:42.484Z,0.80
2019-01-14T22:05:11.235Z,1.00
2019-01-14T22:07:41.628Z,1.20
2019-01-14T22:10:24.431Z,1.10
2019-01-14T22:12:52.729Z,1.50
2019-01-14T22:15:22.905Z,1.27
2019-01-14T22:17:51.406Z,1.30
2019-01-14T22:20:22.216Z,1.80
2019-01-14T22:22:50.906Z,2.30
2019-01-14T22:25:19.532Z,2.83
2019-01-14T22:27:47.832Z,3.00
2019-01-14T22:30:19.415Z,2.60
2019-01-14T22:32:47.947Z,2.20
2019-01-14T22:35:16.222Z,3.17
2019-01-14T22:37:44.611Z,2.20
2019-01-14T22:40:14.521Z,1.50
2019-01-14T22:45:20.304Z,1.60
2019-01-14T22:47:48.763Z,1.40
2019-01-14T22:50:18.742Z,1.30
2019-01-14T22:52:47.197Z,1.00
2019-01-14T22:55:18.579Z,1.07
2019-01-14T22:57:47.162Z,0.93
2019-01-14T23:00:23.490Z,1.33
2019-01-14T23:02:52.239Z,1.17
2019-01-14T23:05:20.617Z,1.60
2019-01-14T23:07:49.247Z,1.40
2019-01-14T23:10:18.813Z,1.40
2019-01-14T23:12:47.380Z,1.43
2019-01-14T23:15:16.962Z,1.70
2019-01-14T23:17:45.300Z,1.70
2019-01-14T23:20:13.763Z,1.60
2019-01-14T23:22:42.206Z,1.73
2019-01-14T23:25:10.593Z,2.10
2019-01-14T23:27:39.489Z,2.10
2019-01-14T23:30:11.273Z,1.70
2019-01-14T23:32:39.908Z,1.90
2019-01-14T23:35:08.962Z,1.80
2019-01-14T23:37:56.802Z,1.93
2019-01-14T23:40:25.194Z,1.90
2019-01-14T23:42:53.986Z,1.93
2019-01-14T23:45:22.597Z,2.17
2019-01-14T23:47:51.058Z,2.10
2019-01-14T23:50:19.571Z,2.50
2019-01-14T23:52:48.267Z,2.40
2019-01-14T23:55:16.723Z,2.40
2019-01-14T23:57:45.501Z,2.40
